createdAt,value
2018-05-27T00:01:08.339Z,4.18
2018-05-27T00:03:36.780Z,4.65
2018-05-27T00:06:05.218Z,4.32
2018-05-27T00:08:33.667Z,4.50
2018-05-27T00:11:02.083Z,4.50
2018-05-27T00:13:30.556Z,4.82
2018-05-27T00:15:58.979Z,4.55
2018-05-27T00:18:27.431Z,4.97
2018-05-27T00:20:55.855Z,5.18
2018-05-27T00:23:24.299Z,4.87
2018-05-27T00:25:52.713Z,4.82
2018-05-27T00:28:21.177Z,4.50
2018-05-27T00:30:49.588Z,4.35
2018-05-27T00:33:18.031Z,4.93
2018-05-27T00:35:46.449Z,4.72
2018-05-27T00:38:14.923Z,4.40
2018-05-27T00:40:43.329Z,4.97
2018-05-27T00:43:11.803Z,4.60
2018-05-27T00:45:40.231Z,4.60
2018-05-27T00:48:08.699Z,4.68
2018-05-27T00:50:37.906Z,4.50
2018-05-27T00:53:07.137Z,4.40
2018-05-27T00:55:35.609Z,4.20
2018-05-27T00:58:04.091Z,4.53
2018-05-27T01:00:32.521Z,4.10
2018-05-27T01:03:00.963Z,4.10
2018-05-27T01:05:29.441Z,4.50
2018-05-27T01:07:57.927Z,4.12
2018-05-27T01:10:26.350Z,4.00
2018-05-27T01:12:54.797Z,3.90
2018-05-27T01:15:23.246Z,3.62
2018-05-27T01:17:51.784Z,3.72
2018-05-27T01:20:20.225Z,4.00
2018-05-27T01:22:49.494Z,4.03
2018-05-27T01:25:17.942Z,3.92
2018-05-27T01:27:46.415Z,3.97
2018-05-27T01:30:15.688Z,4.10
2018-05-27T01:32:44.138Z,3.87
2018-05-27T01:35:12.552Z,3.92
2018-05-27T01:37:41.021Z,3.87
2018-05-27T01:40:09.464Z,3.90
2018-05-27T01:42:37.925Z,4.10
2018-05-27T01:45:07.157Z,4.00
2018-05-27T01:47:35.616Z,3.80
2018-05-27T01:50:04.084Z,3.70
2018-05-27T01:52:32.569Z,3.80
2018-05-27T01:55:01.011Z,4.03
2018-05-27T01:57:29.490Z,3.80
2018-05-27T01:59:57.934Z,3.80
2018-05-27T02:02:26.439Z,4.15
2018-05-27T02:04:55.703Z,4.20
2018-05-27T02:07:24.163Z,3.75
2018-05-27T02:09:52.598Z,4.00
2018-05-27T02:12:21.083Z,4.00
2018-05-27T02:14:49.604Z,3.60
2018-05-27T02:17:18.064Z,3.72
2018-05-27T02:19:47.287Z,3.72
2018-05-27T02:22:15.716Z,3.90
2018-05-27T02:24:44.232Z,4.03
2018-05-27T02:27:12.720Z,4.03
2018-05-27T02:29:41.198Z,3.83
2018-05-27T02:32:09.671Z,3.65
2018-05-27T02:34:39.191Z,4.00
2018-05-27T02:37:09.573Z,4.12
2018-05-27T02:39:38.156Z,3.95
2018-05-27T02:42:06.607Z,3.72
2018-05-27T02:44:35.853Z,3.97
2018-05-27T02:47:04.280Z,3.50
2018-05-27T02:49:32.744Z,3.73
2018-05-27T02:52:01.187Z,3.55
2018-05-27T02:54:29.670Z,3.30
2018-05-27T02:56:58.143Z,3.45
2018-05-27T02:59:26.615Z,3.58
2018-05-27T03:01:55.810Z,3.37
2018-05-27T03:04:24.354Z,3.60
2018-05-27T03:06:52.805Z,3.30
2018-05-27T03:09:21.272Z,3.40
2018-05-27T03:11:50.498Z,3.42
2018-05-27T03:14:18.948Z,3.62
2018-05-27T03:16:47.384Z,3.50
2018-05-27T03:19:15.843Z,3.90
2018-05-27T03:21:45.036Z,3.95
2018-05-27T03:24:14.298Z,3.70
2018-05-27T03:26:42.732Z,3.80
2018-05-27T03:29:11.999Z,3.60
2018-05-27T03:31:40.432Z,3.40
2018-05-27T03:34:08.900Z,3.60
2018-05-27T03:36:38.071Z,3.62
2018-05-27T03:39:06.534Z,3.50
2018-05-27T03:41:34.947Z,3.57
2018-05-27T03:44:03.447Z,3.55
2018-05-27T03:46:32.634Z,3.28
2018-05-27T03:49:01.085Z,3.65
2018-05-27T03:51:29.528Z,3.70
2018-05-27T03:53:58.741Z,3.40
2018-05-27T03:56:27.148Z,3.57
2018-05-27T03:58:55.594Z,3.50
2018-05-27T04:01:24.780Z,3.50
2018-05-27T04:04:10.828Z,3.37
2018-05-27T04:06:56.872Z,3.33
2018-05-27T04:09:26.083Z,3.10
2018-05-27T04:11:54.491Z,3.17
2018-05-27T04:14:22.941Z,3.17
2018-05-27T04:16:52.113Z,3.35
2018-05-27T04:19:20.563Z,3.12
2018-05-27T04:21:48.985Z,3.25
2018-05-27T04:24:17.440Z,3.17
2018-05-27T04:26:45.859Z,3.40
2018-05-27T04:29:14.279Z,3.17
2018-05-27T04:31:42.724Z,3.28
2018-05-27T04:34:11.141Z,3.03
2018-05-27T04:36:39.594Z,3.50
2018-05-27T04:39:08.012Z,3.50
2018-05-27T04:41:36.476Z,3.55
2018-05-27T04:44:05.645Z,3.67
2018-05-27T04:46:34.103Z,3.40
2018-05-27T04:49:02.527Z,3.17
2018-05-27T04:51:31.038Z,3.60
2018-05-27T04:54:00.231Z,3.50
2018-05-27T04:56:28.686Z,3.20
2018-05-27T04:58:57.110Z,3.72
2018-05-27T05:01:26.334Z,3.55
2018-05-27T05:03:54.789Z,3.62
2018-05-27T05:06:23.230Z,3.28
2018-05-27T05:08:51.665Z,3.30
2018-05-27T05:11:20.107Z,3.00
2018-05-27T05:13:48.539Z,3.25
2018-05-27T05:16:17.765Z,3.33
2018-05-27T05:18:46.197Z,3.00
2018-05-27T05:21:14.686Z,3.00
2018-05-27T05:23:43.153Z,3.10
2018-05-27T05:26:11.633Z,3.15
2018-05-27T05:28:40.077Z,3.00
2018-05-27T05:31:08.564Z,3.00
2018-05-27T05:33:36.988Z,2.97
2018-05-27T05:36:05.470Z,2.90
2018-05-27T05:38:33.905Z,2.83
2018-05-27T05:41:03.189Z,3.10
2018-05-27T05:43:31.677Z,2.90
2018-05-27T05:46:00.184Z,2.60
2018-05-27T05:48:29.415Z,2.90
2018-05-27T05:50:57.939Z,2.70
2018-05-27T05:53:26.404Z,2.53
2018-05-27T05:55:54.944Z,2.72
2018-05-27T05:58:24.167Z,2.83
2018-05-27T06:00:52.726Z,3.00
2018-05-27T06:03:21.954Z,2.90
2018-05-27T06:05:50.464Z,3.00
2018-05-27T06:08:18.911Z,2.97
2018-05-27T06:10:47.414Z,3.22
2018-05-27T06:13:15.853Z,2.83
2018-05-27T06:15:44.278Z,2.78
2018-05-27T06:18:12.735Z,2.62
2018-05-27T06:20:41.978Z,2.80
2018-05-27T06:23:10.458Z,3.05
2018-05-27T06:25:38.914Z,2.80
2018-05-27T06:28:08.135Z,2.60
2018-05-27T06:30:36.570Z,3.03
2018-05-27T06:33:05.050Z,3.20
2018-05-27T06:35:33.481Z,3.08
2018-05-27T06:38:02.065Z,3.00
2018-05-27T06:40:30.689Z,3.12
2018-05-27T06:42:59.224Z,3.30
2018-05-27T06:45:28.459Z,3.17
2018-05-27T06:47:57.047Z,3.05
2018-05-27T06:50:25.492Z,3.15
2018-05-27T06:52:53.954Z,2.90
2018-05-27T06:55:22.402Z,2.80
2018-05-27T06:57:50.860Z,3.03
2018-05-27T07:00:20.046Z,2.70
2018-05-27T07:02:48.514Z,2.78
2018-05-27T07:05:16.974Z,2.62
2018-05-27T07:07:45.449Z,2.95
2018-05-27T07:10:13.864Z,2.60
2018-05-27T07:12:42.323Z,2.65
2018-05-27T07:15:11.526Z,2.92
2018-05-27T07:17:39.982Z,2.92
2018-05-27T07:20:08.419Z,3.10
2018-05-27T07:22:36.903Z,3.10
2018-05-27T07:25:05.322Z,3.00
2018-05-27T07:27:34.575Z,3.20
2018-05-27T07:30:03.055Z,3.00
2018-05-27T07:32:31.573Z,3.28
2018-05-27T07:34:59.993Z,3.10
2018-05-27T07:37:28.459Z,3.20
2018-05-27T07:39:56.890Z,2.78
2018-05-27T07:42:25.412Z,2.90
2018-05-27T07:44:53.853Z,2.67
2018-05-27T07:47:22.335Z,2.80
2018-05-27T07:49:50.819Z,2.70
2018-05-27T07:52:19.273Z,2.80
2018-05-27T07:54:47.756Z,2.60
2018-05-27T07:57:16.234Z,2.40
2018-05-27T07:59:44.693Z,2.50
2018-05-27T08:02:13.113Z,2.50
2018-05-27T08:04:42.329Z,2.67
2018-05-27T08:07:11.539Z,2.40
2018-05-27T08:09:40.754Z,2.30
2018-05-27T08:12:09.177Z,2.40
2018-05-27T08:14:37.644Z,2.50
2018-05-27T08:17:06.080Z,2.40
2018-05-27T08:19:34.533Z,2.35
2018-05-27T08:22:03.863Z,2.47
2018-05-27T08:24:33.283Z,2.50
2018-05-27T08:27:02.467Z,2.30
2018-05-27T08:29:32.467Z,2.45
2018-05-27T08:32:01.683Z,2.50
2018-05-27T08:34:30.198Z,2.45
2018-05-27T08:36:58.631Z,2.53
2018-05-27T08:39:27.085Z,2.35
2018-05-27T08:41:55.510Z,2.40
2018-05-27T08:44:23.973Z,2.20
2018-05-27T08:46:52.403Z,2.55
2018-05-27T08:49:21.624Z,2.60
2018-05-27T08:51:50.814Z,2.50
2018-05-27T08:54:20.077Z,2.20
2018-05-27T08:56:48.512Z,2.60
2018-05-27T08:59:17.739Z,2.47
2018-05-27T09:01:46.273Z,2.58
2018-05-27T09:04:14.726Z,2.40
2018-05-27T09:06:43.135Z,2.27
2018-05-27T09:09:11.759Z,2.67
2018-05-27T09:11:40.986Z,2.40
2018-05-27T09:14:09.434Z,2.37
2018-05-27T09:16:37.856Z,2.35
2018-05-27T09:19:06.306Z,2.47
2018-05-27T09:21:35.496Z,2.47
2018-05-27T09:24:03.935Z,2.30
2018-05-27T09:26:32.381Z,2.10
2018-05-27T09:29:01.589Z,2.40
2018-05-27T09:31:30.764Z,2.37
2018-05-27T09:33:59.863Z,2.50
2018-05-27T09:36:28.275Z,2.37
2018-05-27T09:38:57.482Z,2.45
2018-05-27T09:41:26.668Z,2.53
2018-05-27T09:43:55.932Z,2.37
2018-05-27T09:46:24.356Z,2.57
2018-05-27T09:48:53.677Z,2.53
2018-05-27T09:51:22.128Z,2.60
2018-05-27T09:53:50.631Z,2.83
2018-05-27T09:56:19.967Z,2.80
2018-05-27T09:58:48.445Z,2.83
2018-05-27T10:01:16.972Z,3.30
2018-05-27T10:03:46.061Z,2.90
2018-05-27T10:06:14.592Z,3.20
2018-05-27T10:08:43.801Z,3.43
2018-05-27T10:11:13.013Z,3.50
2018-05-27T10:13:41.436Z,3.20
2018-05-27T10:16:09.901Z,3.50
2018-05-27T10:18:38.372Z,3.80
2018-05-27T10:21:06.837Z,3.62
2018-05-27T10:23:36.060Z,3.55
2018-05-27T10:26:04.555Z,3.43
2018-05-27T10:28:32.973Z,3.87
2018-05-27T10:31:01.444Z,3.58
2018-05-27T10:33:29.855Z,3.80
2018-05-27T10:35:58.325Z,3.70
2018-05-27T10:38:26.761Z,4.10
2018-05-27T10:40:55.237Z,4.28
2018-05-27T10:43:23.651Z,4.10
2018-05-27T10:45:52.115Z,4.10
2018-05-27T10:48:21.314Z,3.62
2018-05-27T10:50:50.572Z,4.10
2018-05-27T10:53:19.009Z,3.97
2018-05-27T10:55:47.475Z,4.35
2018-05-27T10:58:16.660Z,4.33
2018-05-27T11:00:45.101Z,4.55
2018-05-27T11:03:13.540Z,4.35
2018-05-27T11:05:41.992Z,4.15
2018-05-27T11:08:10.422Z,4.10
2018-05-27T11:10:39.676Z,4.20
2018-05-27T11:13:08.140Z,4.28
2018-05-27T11:15:36.595Z,4.40
2018-05-27T11:18:05.781Z,4.12
2018-05-27T11:20:35.045Z,4.30
2018-05-27T11:23:03.520Z,4.85
2018-05-27T11:25:32.036Z,4.43
2018-05-27T11:28:00.483Z,4.65
2018-05-27T11:30:28.980Z,4.50
2018-05-27T11:32:57.423Z,4.60
2018-05-27T11:35:26.660Z,4.40
2018-05-27T11:37:55.099Z,4.03
2018-05-27T11:40:23.553Z,4.85
2018-05-27T11:42:51.968Z,4.30
2018-05-27T11:45:20.460Z,4.50
2018-05-27T11:47:48.902Z,4.40
2018-05-27T11:50:17.351Z,4.35
2018-05-27T11:52:45.769Z,3.95
2018-05-27T11:55:14.240Z,4.80
2018-05-27T11:57:42.699Z,6.45
2018-05-27T12:00:11.187Z,5.28
2018-05-27T12:02:39.711Z,5.90
2018-05-27T12:05:08.169Z,5.32
2018-05-27T12:07:36.587Z,5.78
2018-05-27T12:10:05.110Z,5.10
2018-05-27T12:12:34.307Z,5.25
2018-05-27T12:15:02.757Z,5.25
2018-05-27T12:17:31.199Z,5.62
2018-05-27T12:19:59.618Z,5.30
2018-05-27T12:22:28.116Z,5.43
2018-05-27T12:24:56.569Z,4.95
2018-05-27T12:27:25.159Z,5.12
2018-05-27T12:29:53.616Z,5.18
2018-05-27T12:32:22.111Z,4.90
2018-05-27T12:34:51.335Z,5.32
2018-05-27T12:37:19.882Z,4.80
2018-05-27T12:39:48.342Z,5.05
2018-05-27T12:42:16.805Z,5.12
2018-05-27T12:44:45.246Z,4.70
2018-05-27T12:47:14.559Z,5.00
2018-05-27T12:49:43.031Z,4.95
2018-05-27T12:52:12.305Z,4.95
2018-05-27T12:54:40.776Z,4.70
2018-05-27T12:57:09.231Z,4.72
2018-05-27T12:59:37.679Z,4.93
2018-05-27T13:02:06.968Z,4.50
2018-05-27T13:04:35.398Z,4.93
2018-05-27T13:07:03.879Z,4.80
2018-05-27T13:09:33.129Z,4.87
2018-05-27T13:12:01.600Z,4.40
2018-05-27T13:14:30.098Z,4.70
2018-05-27T13:16:58.872Z,4.80
2018-05-27T13:19:27.037Z,4.57
2018-05-27T13:21:55.516Z,4.80
2018-05-27T13:24:24.000Z,4.67
2018-05-27T13:26:52.478Z,4.70
2018-05-27T13:29:20.905Z,4.77
2018-05-27T13:31:49.779Z,5.12
2018-05-27T13:34:18.239Z,4.45
2018-05-27T13:36:47.486Z,5.00
2018-05-27T13:39:15.946Z,5.15
2018-05-27T13:41:44.393Z,4.75
2018-05-27T13:44:12.877Z,5.28
2018-05-27T13:46:41.391Z,5.07
2018-05-27T13:49:09.842Z,5.10
2018-05-27T13:51:38.307Z,5.00
2018-05-27T13:54:06.762Z,4.70
2018-05-27T13:56:35.272Z,4.50
2018-05-27T13:59:03.725Z,4.80
2018-05-27T14:01:32.211Z,4.60
2018-05-27T14:04:00.640Z,4.45
2018-05-27T14:06:29.125Z,4.50
2018-05-27T14:08:57.580Z,4.32
2018-05-27T14:11:26.075Z,4.30
2018-05-27T14:13:54.556Z,4.78
2018-05-27T14:16:23.056Z,4.55
2018-05-27T14:18:51.568Z,4.30
2018-05-27T14:21:20.062Z,4.57
2018-05-27T14:23:49.330Z,4.62
2018-05-27T14:26:17.845Z,4.40
2018-05-27T14:28:46.331Z,4.63
2018-05-27T14:31:15.546Z,4.62
2018-05-27T14:33:44.802Z,4.43
2018-05-27T14:36:13.276Z,4.05
2018-05-27T14:38:42.291Z,4.75
2018-05-27T14:41:11.466Z,4.37
2018-05-27T14:43:40.701Z,4.65
2018-05-27T14:46:09.175Z,4.60
2018-05-27T14:48:37.677Z,4.57
2018-05-27T14:51:06.162Z,4.40
2018-05-27T14:53:34.709Z,4.50
2018-05-27T14:56:03.190Z,4.40
2018-05-27T14:58:31.683Z,4.90
2018-05-27T15:01:00.176Z,5.18
2018-05-27T15:03:28.719Z,5.10
2018-05-27T15:05:57.167Z,4.80
2018-05-27T15:08:25.640Z,4.60
2018-05-27T15:10:54.108Z,4.50
2018-05-27T15:13:22.589Z,4.00
2018-05-27T15:15:51.043Z,4.10
2018-05-27T15:18:19.545Z,3.70
2018-05-27T15:20:48.739Z,3.70
2018-05-27T15:23:18.009Z,3.50
2018-05-27T15:25:46.455Z,3.50
2018-05-27T15:28:14.953Z,3.45
2018-05-27T15:30:43.403Z,3.47
2018-05-27T15:33:11.896Z,3.50
2018-05-27T15:35:40.326Z,3.20
2018-05-27T15:38:08.798Z,3.28
2018-05-27T15:40:37.220Z,3.53
2018-05-27T15:43:05.658Z,3.60
2018-05-27T15:45:34.565Z,3.22
2018-05-27T15:48:03.009Z,3.12
2018-05-27T15:50:32.203Z,3.80
2018-05-27T15:53:01.424Z,4.40
2018-05-27T15:55:29.827Z,4.10
2018-05-27T15:57:58.280Z,3.62
2018-05-27T16:00:27.451Z,4.10
2018-05-27T16:02:55.899Z,4.20
2018-05-27T16:05:24.373Z,3.75
2018-05-27T16:07:53.670Z,3.50
2018-05-27T16:10:22.089Z,3.50
2018-05-27T16:12:50.525Z,3.30
2018-05-27T16:15:19.699Z,3.35
2018-05-27T16:17:48.161Z,3.75
2018-05-27T16:20:16.562Z,3.20
2018-05-27T16:22:45.046Z,3.50
2018-05-27T16:25:13.515Z,3.42
2018-05-27T16:27:41.942Z,3.62
2018-05-27T16:30:11.169Z,3.97
2018-05-27T16:32:39.592Z,4.30
2018-05-27T16:35:08.043Z,4.10
2018-05-27T16:37:36.484Z,4.00
2018-05-27T16:40:04.957Z,3.80
2018-05-27T16:42:33.405Z,3.70
2018-05-27T16:45:01.879Z,3.65
2018-05-27T16:47:30.385Z,3.80
2018-05-27T16:49:58.831Z,3.28
2018-05-27T16:52:27.279Z,4.37
2018-05-27T16:54:55.723Z,3.70
2018-05-27T16:57:24.216Z,3.53
2018-05-27T16:59:52.695Z,3.63
2018-05-27T17:02:21.143Z,4.12
2018-05-27T17:04:49.602Z,4.03
2018-05-27T17:07:18.002Z,4.37
2018-05-27T17:09:46.482Z,4.40
2018-05-27T17:12:14.864Z,4.30
2018-05-27T17:14:43.311Z,4.75
2018-05-27T17:17:11.706Z,4.30
2018-05-27T17:19:40.129Z,3.90
2018-05-27T17:22:09.470Z,4.30
2018-05-27T17:24:37.921Z,4.43
2018-05-27T17:27:07.123Z,3.67
2018-05-27T17:29:36.344Z,4.12
2018-05-27T17:32:04.818Z,3.70
2018-05-27T17:34:34.073Z,4.32
2018-05-27T17:37:02.536Z,4.12
2018-05-27T17:39:30.982Z,3.87
2018-05-27T17:41:59.409Z,3.97
2018-05-27T17:44:27.853Z,3.95
2018-05-27T17:46:57.043Z,4.07
2018-05-27T17:49:25.494Z,3.87
2018-05-27T17:51:53.915Z,4.40
2018-05-27T17:54:22.376Z,4.20
2018-05-27T17:56:50.810Z,3.90
2018-05-27T17:59:20.041Z,4.32
2018-05-27T18:01:48.459Z,4.12
2018-05-27T18:04:16.943Z,4.12
2018-05-27T18:06:45.394Z,4.00
2018-05-27T18:09:13.836Z,4.28
2018-05-27T18:11:42.267Z,3.80
2018-05-27T18:14:10.767Z,4.80
2018-05-27T18:16:39.222Z,4.40
2018-05-27T18:19:07.716Z,4.45
2018-05-27T18:21:36.144Z,4.15
2018-05-27T18:24:04.759Z,4.80
2018-05-27T18:26:33.431Z,4.28
2018-05-27T18:29:02.625Z,4.12
2018-05-27T18:31:31.267Z,4.57
2018-05-27T18:33:59.731Z,4.45
2018-05-27T18:36:28.939Z,4.35
2018-05-27T18:38:57.391Z,4.60
2018-05-27T18:41:25.868Z,4.20
2018-05-27T18:43:54.285Z,4.50
2018-05-27T18:46:23.523Z,4.40
2018-05-27T18:48:52.932Z,4.60
2018-05-27T18:51:21.417Z,4.95
2018-05-27T18:53:50.632Z,5.03
2018-05-27T18:56:19.156Z,5.20
2018-05-27T18:58:48.356Z,4.67
2018-05-27T19:01:16.817Z,4.93
2018-05-27T19:03:45.290Z,5.25
2018-05-27T19:06:13.832Z,5.00
2018-05-27T19:08:44.129Z,5.22
2018-05-27T19:11:13.434Z,4.60
2018-05-27T19:13:42.655Z,4.80
2018-05-27T19:16:11.207Z,5.03
2018-05-27T19:18:39.738Z,5.20
2018-05-27T19:21:11.019Z,5.20
2018-05-27T19:23:39.656Z,5.40
2018-05-27T19:26:08.197Z,4.93
2018-05-27T19:28:36.795Z,4.82
2018-05-27T19:31:05.334Z,5.30
2018-05-27T19:33:34.751Z,5.45
2018-05-27T19:36:03.211Z,5.32
2018-05-27T19:38:32.398Z,5.55
2018-05-27T19:41:00.850Z,5.55
2018-05-27T19:43:29.306Z,6.05
2018-05-27T19:45:57.837Z,5.22
2018-05-27T19:48:26.289Z,5.20
2018-05-27T19:50:54.783Z,4.57
2018-05-27T19:53:23.391Z,5.00
2018-05-27T19:55:51.880Z,5.30
2018-05-27T19:58:20.386Z,5.50
2018-05-27T20:00:49.032Z,5.45
2018-05-27T20:03:17.631Z,5.32
2018-05-27T20:05:46.102Z,5.03
2018-05-27T20:08:14.546Z,4.75
2018-05-27T20:10:43.820Z,4.87
2018-05-27T20:13:12.351Z,4.32
2018-05-27T20:15:41.788Z,4.78
2018-05-27T20:18:10.379Z,4.60
2018-05-27T20:20:38.858Z,4.93
2018-05-27T20:23:07.389Z,4.78
2018-05-27T20:25:35.863Z,4.70
2018-05-27T20:28:04.402Z,4.80
2018-05-27T20:30:33.027Z,4.70
2018-05-27T20:33:01.510Z,4.85
2018-05-27T20:35:30.031Z,4.70
2018-05-27T20:37:58.490Z,4.62
2018-05-27T20:40:27.095Z,4.93
2018-05-27T20:42:55.561Z,4.82
2018-05-27T20:45:24.170Z,4.72
2018-05-27T20:47:52.821Z,4.65
2018-05-27T20:50:21.352Z,4.50
2018-05-27T20:52:50.702Z,4.47
2018-05-27T20:55:19.338Z,4.40
2018-05-27T20:57:47.850Z,4.80
2018-05-27T21:00:16.499Z,4.87
2018-05-27T21:02:45.077Z,4.87
2018-05-27T21:05:13.602Z,4.90
2018-05-27T21:07:42.989Z,5.18
2018-05-27T21:10:11.439Z,4.82
2018-05-27T21:12:40.012Z,4.83
2018-05-27T21:15:08.449Z,4.65
2018-05-27T21:17:37.058Z,4.80
2018-05-27T21:20:06.388Z,4.93
2018-05-27T21:22:34.979Z,5.12
2018-05-27T21:25:04.172Z,4.87
2018-05-27T21:27:32.661Z,4.70
2018-05-27T21:30:01.081Z,4.68
2018-05-27T21:32:29.550Z,4.80
2018-05-27T21:34:58.009Z,4.27
2018-05-27T21:37:26.499Z,4.30
2018-05-27T21:39:54.954Z,4.22
2018-05-27T21:42:23.490Z,4.50
2018-05-27T21:44:51.921Z,4.82
2018-05-27T21:47:20.372Z,4.72
2018-05-27T21:49:48.796Z,4.70
2018-05-27T21:52:17.256Z,5.00
2018-05-27T21:54:45.715Z,4.68
2018-05-27T21:57:14.151Z,4.65
2018-05-27T21:59:43.353Z,4.95
2018-05-27T22:02:11.847Z,4.83
2018-05-27T22:04:40.283Z,4.80
2018-05-27T22:07:08.756Z,5.12
2018-05-27T22:09:37.172Z,5.10
2018-05-27T22:12:05.617Z,4.85
2018-05-27T22:14:34.041Z,4.87
2018-05-27T22:17:02.471Z,4.75
2018-05-27T22:19:30.899Z,5.10
2018-05-27T22:21:59.353Z,5.20
2018-05-27T22:24:27.842Z,4.80
2018-05-27T22:26:56.357Z,5.10
2018-05-27T22:29:24.819Z,5.25
2018-05-27T22:31:53.303Z,5.57
2018-05-27T22:34:22.491Z,5.40
2018-05-27T22:36:50.963Z,4.97
2018-05-27T22:39:19.416Z,5.45
2018-05-27T22:41:47.866Z,5.18
2018-05-27T22:44:16.293Z,4.75
2018-05-27T22:46:44.702Z,4.60
2018-05-27T22:49:13.222Z,4.90
2018-05-27T22:51:42.421Z,5.10
2018-05-27T22:54:10.867Z,5.40
2018-05-27T22:56:40.076Z,5.35
2018-05-27T22:59:09.337Z,5.30
2018-05-27T23:01:37.738Z,5.43
2018-05-27T23:04:06.201Z,5.20
2018-05-27T23:06:34.661Z,4.82
2018-05-27T23:09:03.179Z,5.10
2018-05-27T23:11:31.640Z,5.20
2018-05-27T23:14:00.133Z,5.65
2018-05-27T23:16:28.627Z,5.40
2018-05-27T23:18:57.107Z,4.90
2018-05-27T23:21:25.584Z,5.05
2018-05-27T23:23:54.090Z,5.37
2018-05-27T23:26:22.585Z,5.10
2018-05-27T23:28:51.109Z,5.20
2018-05-27T23:31:19.586Z,5.50
2018-05-27T23:33:48.863Z,5.80
2018-05-27T23:36:17.318Z,5.37
2018-05-27T23:38:45.821Z,5.68
2018-05-27T23:41:15.155Z,5.50
2018-05-27T23:43:44.496Z,5.70
2018-05-27T23:46:12.975Z,5.72
2018-05-27T23:48:41.435Z,5.53
2018-05-27T23:51:10.740Z,6.15
2018-05-27T23:53:39.974Z,6.00
2018-05-27T23:56:08.403Z,6.00
2018-05-27T23:58:36.860Z,6.97
